Hampton, CT (06247)

4:24 PM EDT on August 04, 2015 (GMT -0400)
Near Route 6 | | Change Station
CLOSE
Current Station
Personal Weather Station
Location: Hampton, CT
Elevation: 490 ft
Nearby Weather Stations

Elev 490 ft 41.77 °N, 72.05 °W | Updated 19 seconds ago

Clear
Clear
85.0 °F
Feels Like 91 °F
N
0.0
Wind Variable Wind from West
Gusts 0.0 mph

Today
High -- | Low -- °F
--% Chance of Precip.
Yesterday
High -- | Low -- °F
Precip. -- in
5:45 AM 8:02 PM
Waning Gibbous, 75% visible
Pressure 29.79 in
Visibility 10.0 miles
Clouds Clear
Heat Index 91 °F
Dew Point 72 °F
Humidity 64%
Rainfall 0.29 in
Snow Depth Not available.
UV 6 out of 12
Pollen 7.30 out of 12
Air Quality Not available.
Flu Activity Not available.
METAR KIJD 041952Z AUTO 19015G22KT 10SM CLR 31/18 A2980 RMK AO2 SLP087 T03110183

More Conditions Fewer Conditions

Pressure 29.79 in
Visibility 10.0 miles
Clouds Clear
Heat Index 91 °F
Dew Point 72 °F
Humidity 64%
Rainfall 0.29 in
Snow Depth Not available.
UV 6 out of 12
Pollen 7.30 out of 12
Air Quality Not available.
Flu Activity Not available.
METAR KIJD 041952Z AUTO 19015G22KT 10SM CLR 31/18 A2980 RMK AO2 SLP087 T03110183

More Conditions Fewer Conditions

10-Day Weather Forecast

×

Almanac

Astronomy

Aug. 04, 2015 Rise Set
Actual Time
Civil Twilight
Nautical Twilight
Astronomical Twilight
Moon
Length of Visible Light
Length of Day
Tomorrow will be .
, % of the Moon is Illuminated

Today's Extremes

State Highs State Lows

Community

WunderPhotos

Upload Photos

1,843,963 photos uploaded!

WunderBlogs® & News

Nearby

Air Quality

  Air Quality AQ Index Pollutant
Not available.

Snow Depth

Station Depth Elevation

Earthquake Activity

City Distance Mag. Time & Date
Minimum magnitude displayed is 2.5.

Coastal Water Temperatures

Place Temperature

Stations

Nearby Weather Stations

Station Location Temp. Windchill Dew Point Humidity Wind Precip. Elev Updated Type